Mayo, Florida
Current Conditions -  °F | °C
As of 4:35 PM on Saturday 25 Oct 2014 (Local Time) from K24J Reporting Station
Clear Clear  
Wind Chill: 81°   Ceiling: Unl
Heat Index: 81°   Visibility: 1.7mi
Dew Point: 48°   Wind: 3mph
Humidity: 32%   Direction: 330°NNW
Pressure: 29.98"   Gusts: NA
Location:  30.05°N, 83.17°W
Report Text: K24J 252035Z AUTO 33003KT 1 3/4SM CLR 27/09 A2998 RMK AO1 VSBY 1 1/4V3
Loading
Personal Weather Stations






























Interactive Weather Map
Tropical Storm Tracking
New forecast layout! Learn more

10-Day Weather Forecast

Advertisements
Track Severe Weather on mobile